Holbrook, NY

3:40 PM EDT on April 29, 2016 (GMT -0400)
Holbrook | | Change Station

Elev 141 ft 40.81 °N, 73.09 °W | Updated 1 second ago

Mostly Cloudy
Mostly Cloudy
55.9 °F
Feels Like 55.9 °F
N
1.8
Wind Variable Wind from SE
Gusts 2.5 mph

Today
High -- | Low -- °F
--% Chance of Precip.
Yesterday
High -- | Low -- °F
Precip. -- in
Pressure 30.08 in
Visibility 10.0 miles
Clouds Mostly Cloudy 10000 ft
Mostly Cloudy 15000 ft
Dew Point 27 °F
Humidity 32%
Rainfall 0.00 in
Snow Depth Not available.
5:52 AM 7:47 PM
Waning Gibbous, 54% visible
METAR KISP 291856Z 12014KT 10SM BKN100 BKN150 12/M02 A3008 RMK AO2 SLP186 T01221017
Pressure 30.08 in
Visibility 10.0 miles
Clouds Mostly Cloudy 10000 ft
Mostly Cloudy 15000 ft
Dew Point 27 °F
Humidity 32%
Rainfall 0.00 in
Snow Depth Not available.
5:52 AM 7:47 PM
Waning Gibbous, 54% visible
METAR KISP 291856Z 12014KT 10SM BKN100 BKN150 12/M02 A3008 RMK AO2 SLP186 T01221017

10-Day Weather Forecast

Almanac

Astronomy

Apr. 29, 2016 Rise Set
Actual Time
Civil Twilight
Nautical Twilight
Astronomical Twilight
Moon
Length of Visible Light
Length of Day
Tomorrow will be .
, % of the Moon is Illuminated

Today's Extremes

State Highs State Lows

Community

WunderPhotos

Upload Photos

1,908,808 photos uploaded!

WunderBlog® & News

Nearby

Air Quality

  Air Quality AQ Index Pollutant
Not available.

Snow Depth

Station Depth Elevation

Earthquake Activity

City Distance Mag. Time & Date
Minimum magnitude displayed is 2.5.

Coastal Water Temperatures

Place Temperature

Stations

Nearby Weather Stations

Station Location Temp. Windchill Dew Point Humidity Wind Precip. Elev Updated Type
                   

Watches & Warnings

There are currently no watches in effect.